createdAt,value
2023-03-12T00:02:21.465Z,5.85
2023-03-12T00:04:48.178Z,5.43
2023-03-12T00:09:41.432Z,5.38
2023-03-12T00:14:35.993Z,5.28
2023-03-12T00:17:02.738Z,5.25
2023-03-12T00:21:56.072Z,4.75
2023-03-12T00:26:49.349Z,5.13
2023-03-12T00:31:42.630Z,4.95
2023-03-12T00:34:09.767Z,3.60
2023-03-12T00:36:36.540Z,5.07
2023-03-12T00:39:03.927Z,4.22
2023-03-12T00:41:30.712Z,4.15
2023-03-12T00:43:57.578Z,3.95
2023-03-12T00:46:24.548Z,4.13
2023-03-12T00:48:51.224Z,4.10
2023-03-12T00:51:18.331Z,3.45
2023-03-12T00:53:45.015Z,3.80
2023-03-12T00:58:38.267Z,3.95
2023-03-12T01:03:31.802Z,4.43
2023-03-12T01:08:25.466Z,3.85
2023-03-12T01:10:52.646Z,3.55
2023-03-12T01:13:19.325Z,4.28
2023-03-12T01:18:12.548Z,3.30
2023-03-12T01:23:07.869Z,3.65
2023-03-12T01:25:35.214Z,3.70
2023-03-12T01:28:02.219Z,3.97
2023-03-12T01:30:29.750Z,3.42
2023-03-12T01:32:56.394Z,2.60
2023-03-12T01:35:23.076Z,2.65
2023-03-12T01:40:18.901Z,2.78
2023-03-12T01:42:53.310Z,2.85
2023-03-12T01:45:53.741Z,3.00
2023-03-12T01:48:20.681Z,2.90
2023-03-12T01:50:50.715Z,2.42
2023-03-12T01:53:17.800Z,2.55
2023-03-12T01:55:44.754Z,2.70
2023-03-12T01:58:11.478Z,2.95
2023-03-12T02:00:38.141Z,2.50
2023-03-12T02:05:58.036Z,3.05
2023-03-12T02:08:24.885Z,2.58
2023-03-12T02:10:51.575Z,2.40
2023-03-12T02:15:45.025Z,2.42
2023-03-12T02:20:56.800Z,2.47
2023-03-12T02:23:36.487Z,2.83
2023-03-12T02:26:05.271Z,2.90
2023-03-12T02:28:42.253Z,2.60
2023-03-12T02:31:10.554Z,2.58
2023-03-12T02:33:37.256Z,3.10
2023-03-12T02:38:52.656Z,2.25
2023-03-12T02:41:28.589Z,2.25
2023-03-12T02:44:05.705Z,2.60
2023-03-12T02:46:40.700Z,2.85
2023-03-12T02:49:07.656Z,2.50
2023-03-12T02:51:34.358Z,2.55
2023-03-12T02:56:29.092Z,2.03
2023-03-12T02:58:55.764Z,2.90
2023-03-12T03:03:49.385Z,2.50
2023-03-12T03:06:16.528Z,2.20
2023-03-12T03:08:43.582Z,2.97
2023-03-12T03:11:10.948Z,3.55
2023-03-12T03:13:37.565Z,2.85
2023-03-12T03:16:04.866Z,3.10
2023-03-12T03:18:32.130Z,3.30
2023-03-12T03:21:07.514Z,3.28
2023-03-12T03:23:35.021Z,3.03
2023-03-12T03:26:02.117Z,2.25
2023-03-12T03:28:29.853Z,2.88
2023-03-12T03:31:00.782Z,2.47
2023-03-12T03:33:29.187Z,2.15
2023-03-12T03:35:57.079Z,2.67
2023-03-12T03:38:23.831Z,2.40
2023-03-12T03:40:50.519Z,2.70
2023-03-12T03:45:44.797Z,1.90
2023-03-12T03:48:12.562Z,2.10
2023-03-12T03:50:40.541Z,2.22
2023-03-12T03:53:09.207Z,2.47
2023-03-12T03:55:37.307Z,1.83
2023-03-12T03:58:04.074Z,2.60
2023-03-12T04:00:31.141Z,2.63
2023-03-12T04:02:57.807Z,2.58
2023-03-12T04:07:55.111Z,2.33
2023-03-12T04:10:24.450Z,2.22
2023-03-12T04:12:51.586Z,3.10
2023-03-12T04:15:18.357Z,1.88
2023-03-12T04:17:45.007Z,2.40
2023-03-12T04:22:38.605Z,3.05
2023-03-12T04:25:07.239Z,2.53
2023-03-12T04:27:34.614Z,2.95
2023-03-12T04:30:01.431Z,2.63
2023-03-12T04:32:28.233Z,2.60
2023-03-12T04:34:54.998Z,3.85
2023-03-12T04:37:22.220Z,2.95
2023-03-12T04:39:48.909Z,3.08
2023-03-12T04:44:42.170Z,2.78
2023-03-12T04:49:35.601Z,2.30
2023-03-12T04:52:02.238Z,1.63
2023-03-12T04:56:55.405Z,2.05
2023-03-12T05:01:48.593Z,2.20
2023-03-12T05:06:41.858Z,2.00
2023-03-12T05:11:35.437Z,1.70
2023-03-12T05:14:02.824Z,1.85
2023-03-12T05:16:29.727Z,2.10
2023-03-12T05:18:56.398Z,2.17
2023-03-12T05:23:49.860Z,2.08
2023-03-12T05:28:44.752Z,2.10
2023-03-12T05:31:12.305Z,1.58
2023-03-12T05:33:39.145Z,2.10
2023-03-12T05:36:06.174Z,1.83
2023-03-12T05:38:32.864Z,2.17
2023-03-12T05:40:59.812Z,2.53
2023-03-12T05:43:27.269Z,2.30
2023-03-12T05:45:58.149Z,2.17
2023-03-12T05:48:24.881Z,2.50
2023-03-12T05:53:18.153Z,1.92
2023-03-12T05:58:11.514Z,1.83
2023-03-12T06:00:38.880Z,1.92
2023-03-12T06:03:05.915Z,2.35
2023-03-12T06:05:34.002Z,2.15
2023-03-12T06:08:01.956Z,1.90
2023-03-12T06:10:28.869Z,2.58
2023-03-12T06:12:55.712Z,2.00
2023-03-12T06:15:22.434Z,2.03
2023-03-12T06:17:49.232Z,1.83
2023-03-12T06:20:16.002Z,1.88
2023-03-12T06:22:42.644Z,2.33
2023-03-12T06:27:36.286Z,2.47
2023-03-12T06:30:04.098Z,2.13
2023-03-12T06:32:31.191Z,2.22
2023-03-12T06:35:00.499Z,2.38
2023-03-12T06:37:27.807Z,2.40
2023-03-12T06:39:54.551Z,2.22
2023-03-12T06:42:22.527Z,1.83
2023-03-12T06:44:50.142Z,2.45
2023-03-12T06:47:17.784Z,2.53
2023-03-12T06:49:44.590Z,2.10
2023-03-12T06:52:11.413Z,1.83
2023-03-12T06:54:38.177Z,2.10
2023-03-12T06:57:04.955Z,2.65
2023-03-12T06:59:31.633Z,2.00
2023-03-12T07:01:58.360Z,2.38
2023-03-12T07:04:25.085Z,2.47
2023-03-12T07:06:51.777Z,2.55
2023-03-12T07:09:18.995Z,2.30
2023-03-12T07:11:45.926Z,2.00
2023-03-12T07:14:12.684Z,2.10
2023-03-12T07:16:39.324Z,2.10
2023-03-12T07:19:06.169Z,2.00
2023-03-12T07:21:32.869Z,1.83
2023-03-12T07:24:00.880Z,1.65
2023-03-12T07:26:27.725Z,2.63
2023-03-12T07:28:54.397Z,2.10
2023-03-12T07:31:21.141Z,2.00
2023-03-12T07:33:47.956Z,2.42
2023-03-12T07:36:15.016Z,1.50
2023-03-12T07:38:41.788Z,2.17
2023-03-12T07:41:08.771Z,1.90
2023-03-12T07:43:35.537Z,1.70
2023-03-12T07:46:02.208Z,2.03
2023-03-12T07:50:55.519Z,1.77
2023-03-12T07:53:22.201Z,1.88
2023-03-12T07:55:49.345Z,1.83
2023-03-12T07:58:16.872Z,2.00
2023-03-12T08:00:44.525Z,2.17
2023-03-12T08:03:11.761Z,1.50
2023-03-12T08:05:38.833Z,2.20
2023-03-12T08:08:06.192Z,2.05
2023-03-12T08:10:32.927Z,1.70
2023-03-12T08:12:59.626Z,2.33
2023-03-12T08:15:26.345Z,1.85
2023-03-12T08:17:53.008Z,2.05
2023-03-12T08:20:19.813Z,1.92
2023-03-12T08:22:46.510Z,1.83
2023-03-12T08:25:13.246Z,2.20
2023-03-12T08:27:39.981Z,1.63
2023-03-12T08:30:07.180Z,2.30
2023-03-12T08:32:34.439Z,2.08
2023-03-12T08:35:01.258Z,1.88
2023-03-12T08:37:27.962Z,1.67
2023-03-12T08:39:54.646Z,4.20
2023-03-12T08:42:21.471Z,2.30
2023-03-12T08:44:48.177Z,2.08
2023-03-12T08:47:14.865Z,2.70
2023-03-12T08:49:41.461Z,2.10
2023-03-12T08:52:08.138Z,3.28
2023-03-12T08:54:34.855Z,2.17
2023-03-12T08:57:01.479Z,2.20
2023-03-12T08:59:28.159Z,2.45
2023-03-12T09:01:54.810Z,2.17
2023-03-12T09:04:21.744Z,2.72
2023-03-12T09:06:48.474Z,2.78
2023-03-12T09:09:15.492Z,2.50
2023-03-12T09:11:42.644Z,2.55
2023-03-12T09:16:56.761Z,2.42
2023-03-12T09:19:23.771Z,2.42
2023-03-12T09:21:50.526Z,2.90
2023-03-12T09:24:17.228Z,2.28
2023-03-12T09:26:43.849Z,2.97
2023-03-12T09:29:10.545Z,2.42
2023-03-12T09:31:37.311Z,2.20
2023-03-12T09:34:05.084Z,1.70
2023-03-12T09:36:32.624Z,1.52
2023-03-12T09:38:59.494Z,1.70
2023-03-12T09:41:30.171Z,1.90
2023-03-12T09:44:08.937Z,2.10
2023-03-12T09:46:44.009Z,1.92
2023-03-12T09:49:22.682Z,1.70
2023-03-12T09:51:55.353Z,1.67
2023-03-12T09:54:30.196Z,1.70
2023-03-12T09:57:02.555Z,1.92
2023-03-12T09:59:29.622Z,1.98
2023-03-12T10:02:03.038Z,1.88
2023-03-12T10:04:58.493Z,1.80
2023-03-12T10:07:44.090Z,1.98
2023-03-12T10:10:23.013Z,1.83
2023-03-12T10:13:02.834Z,2.13
2023-03-12T10:15:48.780Z,2.47
2023-03-12T10:18:30.724Z,2.10
2023-03-12T10:21:34.217Z,2.38
2023-03-12T10:24:25.171Z,2.78
2023-03-12T10:26:55.442Z,2.20
2023-03-12T10:29:27.033Z,2.13
2023-03-12T10:31:59.656Z,2.63
2023-03-12T10:34:46.303Z,2.72
2023-03-12T10:37:24.916Z,2.45
2023-03-12T10:39:53.263Z,2.50
2023-03-12T10:42:23.810Z,2.28
2023-03-12T10:44:58.710Z,3.08
2023-03-12T10:47:48.377Z,2.60
2023-03-12T10:50:17.477Z,2.10
2023-03-12T10:52:45.618Z,3.25
2023-03-12T10:55:21.524Z,2.92
2023-03-12T10:57:48.902Z,2.65
2023-03-12T11:00:24.958Z,2.47
2023-03-12T11:03:03.570Z,2.83
2023-03-12T11:05:48.907Z,3.25
2023-03-12T11:08:27.260Z,2.60
2023-03-12T11:10:55.631Z,3.13
2023-03-12T11:13:28.541Z,2.42
2023-03-12T11:18:29.835Z,3.25
2023-03-12T11:21:13.546Z,2.50
2023-03-12T11:23:43.873Z,2.75
2023-03-12T11:26:17.142Z,2.55
2023-03-12T11:29:01.150Z,2.65
2023-03-12T11:31:50.094Z,2.97
2023-03-12T11:34:27.269Z,2.70
2023-03-12T11:37:40.181Z,2.63
2023-03-12T11:40:32.652Z,2.42
2023-03-12T11:43:04.064Z,3.80
2023-03-12T11:46:12.654Z,3.17
2023-03-12T11:49:23.982Z,3.75
2023-03-12T11:51:50.738Z,3.00
2023-03-12T11:54:48.140Z,3.10
2023-03-12T11:57:39.804Z,3.42
2023-03-12T12:00:20.369Z,3.30
2023-03-12T12:03:11.405Z,3.63
2023-03-12T12:06:03.863Z,3.50
2023-03-12T12:08:40.044Z,3.72
2023-03-12T12:11:31.286Z,3.80
2023-03-12T12:14:25.147Z,3.40
2023-03-12T12:17:05.854Z,3.35
2023-03-12T12:19:54.647Z,3.65
2023-03-12T12:22:42.744Z,3.70
2023-03-12T12:25:18.415Z,3.22
2023-03-12T12:28:20.000Z,4.13
2023-03-12T12:31:23.876Z,3.38
2023-03-12T12:34:06.032Z,3.33
2023-03-12T12:36:35.213Z,3.60
2023-03-12T12:39:10.775Z,3.70
2023-03-12T12:41:43.446Z,3.25
2023-03-12T12:44:18.800Z,3.25
2023-03-12T12:46:52.151Z,3.42
2023-03-12T12:49:35.513Z,4.05
2023-03-12T12:52:06.465Z,3.90
2023-03-12T12:54:54.399Z,4.72
2023-03-12T12:57:29.136Z,3.58
2023-03-12T12:59:58.867Z,4.20
2023-03-12T13:02:29.979Z,3.88
2023-03-12T13:04:58.578Z,3.67
2023-03-12T13:07:27.710Z,3.80
2023-03-12T13:09:57.065Z,3.88
2023-03-12T13:12:50.440Z,3.20
2023-03-12T13:15:29.401Z,3.53
2023-03-12T13:17:58.826Z,3.83
2023-03-12T13:20:38.745Z,3.75
2023-03-12T13:23:30.846Z,3.72
2023-03-12T13:26:27.096Z,3.97
2023-03-12T13:29:06.066Z,3.60
2023-03-12T13:31:37.915Z,4.22
2023-03-12T13:34:19.837Z,4.00
2023-03-12T13:36:50.251Z,4.03
2023-03-12T13:39:17.101Z,3.75
2023-03-12T13:41:52.199Z,4.55
2023-03-12T13:44:33.152Z,4.10
2023-03-12T13:47:04.107Z,3.90
2023-03-12T13:49:43.373Z,3.40
2023-03-12T13:52:26.515Z,3.90
2023-03-12T13:55:30.265Z,3.90
2023-03-12T14:01:49.821Z,4.22
2023-03-12T14:04:33.414Z,4.30
2023-03-12T14:07:35.726Z,3.58
2023-03-12T14:10:18.845Z,4.38
2023-03-12T14:13:24.326Z,3.78
2023-03-12T14:15:56.468Z,3.78
2023-03-12T14:18:26.906Z,3.97
2023-03-12T14:20:59.773Z,4.30
2023-03-12T14:23:36.952Z,4.07
2023-03-12T14:26:06.778Z,4.10
2023-03-12T14:28:40.175Z,4.70
2023-03-12T14:31:12.690Z,4.72
2023-03-12T14:33:48.596Z,4.75
2023-03-12T14:36:19.760Z,4.50
2023-03-12T14:38:48.898Z,4.40
2023-03-12T14:41:27.757Z,5.05
2023-03-12T14:43:54.720Z,5.28
2023-03-12T14:46:23.330Z,4.40
2023-03-12T14:48:56.754Z,4.65
2023-03-12T14:51:35.372Z,4.35
2023-03-12T14:54:03.297Z,4.68
2023-03-12T14:56:34.745Z,4.78
2023-03-12T14:59:20.155Z,4.35
2023-03-12T15:01:47.493Z,4.53
2023-03-12T15:04:18.081Z,4.63
2023-03-12T15:07:01.510Z,4.57
2023-03-12T15:09:30.547Z,4.30
2023-03-12T15:12:01.401Z,4.53
2023-03-12T15:14:37.199Z,4.82
2023-03-12T15:17:05.077Z,5.30
2023-03-12T15:19:36.464Z,4.80
2023-03-12T15:22:04.677Z,5.55
2023-03-12T15:24:38.560Z,5.22
2023-03-12T15:27:32.492Z,4.97
2023-03-12T15:30:00.931Z,5.25
2023-03-12T15:32:30.646Z,4.95
2023-03-12T15:34:59.217Z,5.40
2023-03-12T15:37:33.643Z,5.97
2023-03-12T15:40:06.806Z,4.78
2023-03-12T15:42:40.249Z,4.93
2023-03-12T15:45:19.106Z,5.63
2023-03-12T15:47:46.278Z,5.85
2023-03-12T15:50:45.750Z,5.50
2023-03-12T15:53:12.317Z,5.40
2023-03-12T15:55:39.878Z,5.15
2023-03-12T15:58:26.450Z,5.22
2023-03-12T16:00:53.302Z,5.03
2023-03-12T16:03:21.703Z,5.88
2023-03-12T16:05:51.579Z,5.90
2023-03-12T16:08:21.554Z,5.95
2023-03-12T16:10:50.247Z,5.88
2023-03-12T16:13:20.123Z,6.10
2023-03-12T16:15:48.107Z,6.38
2023-03-12T16:18:19.631Z,6.72
2023-03-12T16:20:47.695Z,7.60
2023-03-12T16:23:15.268Z,6.70
2023-03-12T16:25:44.215Z,6.72
2023-03-12T16:28:14.381Z,6.88
2023-03-12T16:30:41.738Z,7.40
2023-03-12T16:33:14.419Z,7.72
2023-03-12T16:38:12.383Z,8.32
2023-03-12T16:40:50.029Z,7.60
2023-03-12T16:43:31.974Z,8.20
2023-03-12T16:45:59.042Z,7.40
2023-03-12T16:48:26.462Z,8.00
2023-03-12T16:50:55.849Z,7.82
2023-03-12T16:53:22.972Z,8.05
2023-03-12T16:55:55.632Z,8.95
2023-03-12T16:58:23.907Z,8.60
2023-03-12T17:00:51.835Z,8.75
2023-03-12T17:03:37.448Z,9.18
2023-03-12T17:06:06.292Z,8.32
2023-03-12T17:08:32.989Z,8.80
2023-03-12T17:11:00.258Z,8.43
2023-03-12T17:13:28.859Z,8.50
2023-03-12T17:15:56.583Z,8.63
2023-03-12T17:18:23.592Z,9.38
2023-03-12T17:20:51.666Z,9.27
2023-03-12T17:23:18.938Z,8.77
2023-03-12T17:25:46.175Z,9.82
2023-03-12T17:28:14.261Z,9.80
2023-03-12T17:30:42.430Z,9.55
2023-03-12T17:33:15.003Z,9.05
2023-03-12T17:35:42.720Z,9.43
2023-03-12T17:38:10.172Z,9.32
2023-03-12T17:40:41.565Z,9.75
2023-03-12T17:43:08.257Z,10.20
2023-03-12T17:45:36.569Z,11.25
2023-03-12T17:48:03.669Z,9.55
2023-03-12T17:50:30.282Z,10.55
2023-03-12T17:52:56.977Z,10.73
2023-03-12T17:55:23.606Z,10.50
2023-03-12T17:57:50.472Z,10.48
2023-03-12T18:00:17.642Z,10.52
2023-03-12T18:02:44.290Z,9.88
2023-03-12T18:05:11.700Z,10.77
2023-03-12T18:07:38.892Z,11.32
2023-03-12T18:10:07.963Z,11.13
2023-03-12T18:12:37.842Z,9.57
2023-03-12T18:15:05.864Z,11.65
2023-03-12T18:17:32.645Z,12.18
2023-03-12T18:19:59.365Z,12.02
2023-03-12T18:22:26.098Z,12.40
2023-03-12T18:24:52.827Z,12.05
2023-03-12T18:27:19.473Z,11.93
2023-03-12T18:29:46.129Z,12.57
2023-03-12T18:32:12.762Z,11.93
2023-03-12T18:34:42.299Z,11.25
2023-03-12T18:37:09.050Z,12.32
2023-03-12T18:39:35.762Z,11.55
2023-03-12T18:42:02.387Z,12.52
2023-03-12T18:44:29.130Z,11.90
2023-03-12T18:46:55.872Z,13.43
2023-03-12T18:49:22.772Z,12.13
2023-03-12T18:51:53.400Z,13.23
2023-03-12T18:54:24.756Z,13.40
2023-03-12T18:56:51.613Z,11.98
2023-03-12T18:59:18.408Z,12.90
2023-03-12T19:01:45.263Z,13.68
2023-03-12T19:04:17.792Z,13.50
2023-03-12T19:06:51.055Z,13.50
2023-03-12T19:09:18.996Z,13.68
2023-03-12T19:11:49.203Z,13.88
2023-03-12T19:14:16.176Z,12.88
2023-03-12T19:16:43.039Z,12.95
2023-03-12T19:19:09.696Z,13.30
2023-03-12T19:21:36.356Z,13.15
2023-03-12T19:24:02.956Z,13.00
2023-03-12T19:26:29.608Z,13.52
2023-03-12T19:28:56.241Z,13.85
2023-03-12T19:31:23.048Z,13.23
2023-03-12T19:33:49.761Z,13.95
2023-03-12T19:36:16.720Z,11.73
2023-03-12T19:38:43.729Z,12.75
2023-03-12T19:41:10.811Z,14.38
2023-03-12T19:43:37.969Z,13.10
2023-03-12T19:46:05.065Z,13.10
2023-03-12T19:48:31.922Z,13.80
2023-03-12T19:51:07.916Z,24.13
2023-03-12T19:53:35.109Z,13.48
2023-03-12T19:56:01.824Z,12.25
2023-03-12T19:58:28.767Z,13.13
2023-03-12T20:00:59.417Z,13.32
2023-03-12T20:03:26.909Z,13.95
2023-03-12T20:05:53.692Z,13.48
2023-03-12T20:08:22.386Z,12.90
2023-03-12T20:10:49.576Z,12.25
2023-03-12T20:13:17.828Z,12.48
2023-03-12T20:15:48.375Z,11.48
2023-03-12T20:18:15.740Z,11.88
2023-03-12T20:20:43.088Z,12.45
2023-03-12T20:23:09.928Z,11.88
2023-03-12T20:25:40.865Z,11.98
2023-03-12T20:28:08.814Z,12.05
2023-03-12T20:30:36.695Z,11.38
2023-03-12T20:33:05.638Z,12.18
2023-03-12T20:35:32.747Z,11.55
2023-03-12T20:37:59.417Z,12.18
2023-03-12T20:40:26.132Z,12.30
2023-03-12T20:42:52.825Z,12.13
2023-03-12T20:45:19.473Z,11.88
2023-03-12T20:47:46.178Z,11.88
2023-03-12T20:50:12.929Z,12.40
2023-03-12T20:52:39.801Z,11.80
2023-03-12T20:55:06.918Z,11.20
2023-03-12T20:57:34.302Z,11.07
2023-03-12T21:00:01.225Z,11.93
2023-03-12T21:02:27.966Z,10.82
2023-03-12T21:04:54.903Z,11.48
2023-03-12T21:07:21.540Z,9.30
2023-03-12T21:09:48.178Z,10.50
2023-03-12T21:12:14.989Z,10.82
2023-03-12T21:14:41.779Z,10.18
2023-03-12T21:17:13.311Z,10.95
2023-03-12T21:19:41.737Z,10.13
2023-03-12T21:22:09.116Z,10.93
2023-03-12T21:24:36.367Z,11.43
2023-03-12T21:27:03.389Z,10.55
2023-03-12T21:29:30.046Z,10.77
2023-03-12T21:31:57.414Z,10.32
2023-03-12T21:34:24.266Z,10.00
2023-03-12T21:36:50.928Z,9.90
2023-03-12T21:39:17.848Z,11.13
2023-03-12T21:41:44.505Z,9.75
2023-03-12T21:44:11.189Z,9.60
2023-03-12T21:46:37.828Z,10.00
2023-03-12T21:49:04.830Z,9.82
2023-03-12T21:51:31.582Z,10.02
2023-03-12T21:53:59.016Z,10.23
2023-03-12T21:56:30.156Z,9.02
2023-03-12T21:58:57.611Z,9.05
2023-03-12T22:01:24.768Z,9.63
2023-03-12T22:03:51.945Z,8.88
2023-03-12T22:06:18.680Z,8.15
2023-03-12T22:08:49.787Z,9.10
2023-03-12T22:11:16.848Z,9.02
2023-03-12T22:13:43.648Z,8.40
2023-03-12T22:16:12.485Z,9.35
2023-03-12T22:18:42.255Z,8.57
2023-03-12T22:21:18.064Z,9.00
2023-03-12T22:23:47.600Z,7.55
2023-03-12T22:26:14.489Z,7.35
2023-03-12T22:28:41.333Z,8.60
2023-03-12T22:31:09.285Z,8.23
2023-03-12T22:33:36.994Z,8.10
2023-03-12T22:36:08.585Z,8.35
2023-03-12T22:38:39.124Z,7.53
2023-03-12T22:41:18.012Z,7.50
2023-03-12T22:43:45.788Z,7.80
2023-03-12T22:46:13.131Z,7.50
2023-03-12T22:48:39.905Z,6.95
2023-03-12T22:51:06.767Z,6.90
2023-03-12T22:53:33.780Z,8.23
2023-03-12T22:56:09.240Z,6.68
2023-03-12T22:58:36.503Z,7.18
2023-03-12T23:01:06.343Z,6.47
2023-03-12T23:03:34.171Z,6.90
2023-03-12T23:06:01.157Z,6.22
2023-03-12T23:08:28.928Z,5.43
2023-03-12T23:10:59.009Z,5.70
2023-03-12T23:13:27.647Z,5.57
2023-03-12T23:15:54.383Z,5.45
2023-03-12T23:18:21.677Z,5.60
2023-03-12T23:20:57.248Z,5.15
2023-03-12T23:23:24.020Z,5.38
2023-03-12T23:25:55.448Z,5.10
2023-03-12T23:28:22.857Z,5.97
2023-03-12T23:31:03.705Z,4.47
2023-03-12T23:33:31.929Z,4.60
2023-03-12T23:36:03.380Z,4.72
2023-03-12T23:38:31.419Z,4.22
2023-03-12T23:41:13.136Z,5.00
2023-03-12T23:43:40.055Z,4.78
2023-03-12T23:46:08.415Z,3.63
2023-03-12T23:48:37.006Z,4.82
2023-03-12T23:51:04.918Z,4.53
2023-03-12T23:53:32.071Z,4.10
2023-03-12T23:56:00.369Z,4.10
2023-03-12T23:58:27.764Z,4.43
